createdAt,value
2022-11-04T00:02:07.578Z,12.50
2022-11-04T00:04:38.466Z,14.10
2022-11-04T00:07:29.743Z,12.60
2022-11-04T00:10:00.019Z,12.80
2022-11-04T00:12:30.410Z,12.20
2022-11-04T00:15:21.702Z,12.30
2022-11-04T00:17:51.825Z,13.30
2022-11-04T00:20:40.209Z,12.00
2022-11-04T00:23:30.064Z,12.70
2022-11-04T00:26:19.883Z,12.50
2022-11-04T00:28:53.320Z,12.70
2022-11-04T00:31:43.295Z,12.50
2022-11-04T00:34:13.744Z,12.80
2022-11-04T00:36:44.232Z,13.50
2022-11-04T00:39:14.587Z,13.00
2022-11-04T00:41:44.665Z,12.20
2022-11-04T00:44:15.173Z,12.30
2022-11-04T00:46:45.415Z,12.50
2022-11-04T00:49:15.696Z,11.70
2022-11-04T00:51:45.966Z,12.00
2022-11-04T00:54:17.165Z,13.30
2022-11-04T00:56:48.953Z,11.90
2022-11-04T00:59:18.985Z,12.90
2022-11-04T01:01:49.224Z,11.50
2022-11-04T01:04:19.766Z,12.30
2022-11-04T01:06:50.281Z,12.50
2022-11-04T01:09:20.515Z,12.70
2022-11-04T01:11:50.524Z,12.90
2022-11-04T01:14:20.754Z,12.70
2022-11-04T01:16:51.304Z,13.20
2022-11-04T01:19:21.337Z,12.10
2022-11-04T01:21:54.427Z,12.80
2022-11-04T01:24:24.711Z,13.40
2022-11-04T01:26:54.967Z,12.50
2022-11-04T01:29:25.316Z,12.10
2022-11-04T01:31:54.217Z,12.40
2022-11-04T01:34:24.999Z,11.30
2022-11-04T01:36:55.484Z,11.00
2022-11-04T01:39:25.483Z,12.70
2022-11-04T01:41:56.406Z,11.00
2022-11-04T01:44:49.487Z,12.20
2022-11-04T01:47:29.344Z,12.30
2022-11-04T01:50:14.215Z,12.50
2022-11-04T01:53:07.381Z,11.80
2022-11-04T01:55:43.965Z,11.50
2022-11-04T01:58:19.045Z,11.50
2022-11-04T02:00:49.971Z,10.10
2022-11-04T02:03:28.002Z,11.00
2022-11-04T02:05:58.771Z,11.10
2022-11-04T02:08:30.406Z,10.50
2022-11-04T02:11:04.245Z,10.40
2022-11-04T02:13:37.423Z,9.90
2022-11-04T02:16:15.805Z,10.40
2022-11-04T02:22:00.435Z,9.90
2022-11-04T02:24:49.526Z,8.80
2022-11-04T02:27:51.409Z,8.80
2022-11-04T02:30:22.536Z,8.90
2022-11-04T02:33:17.852Z,9.20
2022-11-04T02:36:32.954Z,8.00
2022-11-04T02:39:35.596Z,8.50
2022-11-04T02:42:28.516Z,8.40
2022-11-04T02:45:11.787Z,8.50
2022-11-04T02:47:50.469Z,8.20
2022-11-04T02:51:02.427Z,9.40
2022-11-04T02:53:47.927Z,8.80
2022-11-04T02:56:22.909Z,8.60
2022-11-04T02:59:16.029Z,9.30
2022-11-04T03:01:50.044Z,8.90
2022-11-04T03:04:28.583Z,8.60
2022-11-04T03:07:02.112Z,7.60
2022-11-04T03:09:34.598Z,7.80
2022-11-04T03:12:10.453Z,8.40
2022-11-04T03:14:51.956Z,8.30
2022-11-04T03:17:30.361Z,9.10
2022-11-04T03:20:04.016Z,8.20
2022-11-04T03:22:37.962Z,8.50
2022-11-04T03:25:09.681Z,8.40
2022-11-04T03:27:51.230Z,7.80
2022-11-04T03:30:23.833Z,8.10
2022-11-04T03:33:35.924Z,7.60
2022-11-04T03:36:08.321Z,8.00
2022-11-04T03:38:39.452Z,8.60
2022-11-04T03:41:35.704Z,7.60
2022-11-04T03:44:05.860Z,6.90
2022-11-04T03:46:36.145Z,8.30
2022-11-04T03:49:06.874Z,7.70
2022-11-04T03:51:36.910Z,7.20
2022-11-04T03:54:07.918Z,6.90
2022-11-04T03:56:54.026Z,7.50
2022-11-04T03:59:41.845Z,7.60
2022-11-04T04:02:21.076Z,7.20
2022-11-04T04:05:01.661Z,8.10
2022-11-04T04:07:42.615Z,8.00
2022-11-04T04:10:41.121Z,7.60
2022-11-04T04:13:22.439Z,7.80
2022-11-04T04:16:14.307Z,8.10
2022-11-04T04:19:24.663Z,8.50
2022-11-04T04:22:03.918Z,9.40
2022-11-04T04:24:59.398Z,8.70
2022-11-04T04:27:32.569Z,9.10
2022-11-04T04:30:10.328Z,8.20
2022-11-04T04:32:56.316Z,7.80
2022-11-04T04:35:43.775Z,8.80
2022-11-04T04:38:44.306Z,9.40
2022-11-04T04:41:54.742Z,8.30
2022-11-04T04:44:48.898Z,9.40
2022-11-04T04:47:28.264Z,9.80
2022-11-04T04:50:01.484Z,10.50
2022-11-04T04:52:38.536Z,10.70
2022-11-04T04:55:09.662Z,9.20
2022-11-04T04:57:39.810Z,9.10
2022-11-04T05:00:13.465Z,7.50
2022-11-04T05:02:44.150Z,7.80
2022-11-04T05:05:17.716Z,7.30
2022-11-04T05:07:48.474Z,7.00
2022-11-04T05:10:18.836Z,9.00
2022-11-04T05:13:08.653Z,9.20
2022-11-04T05:15:40.069Z,8.90
2022-11-04T05:18:10.691Z,8.40
2022-11-04T05:20:41.347Z,11.40
2022-11-04T05:23:12.778Z,10.90
2022-11-04T05:25:43.400Z,10.50
2022-11-04T05:28:13.158Z,9.80
2022-11-04T05:30:43.251Z,10.80
2022-11-04T05:33:13.043Z,12.50
2022-11-04T05:35:43.364Z,12.60
2022-11-04T05:38:13.483Z,10.60
2022-11-04T05:40:43.427Z,13.60
2022-11-04T05:43:13.102Z,14.40
2022-11-04T05:45:43.517Z,14.80
2022-11-04T05:48:13.125Z,14.90
2022-11-04T05:50:42.820Z,12.40
2022-11-04T05:53:14.204Z,12.70
2022-11-04T05:55:44.339Z,13.20
2022-11-04T05:58:14.612Z,14.30
2022-11-04T06:00:44.694Z,14.70
2022-11-04T06:03:16.347Z,18.40
2022-11-04T06:05:46.759Z,19.60
2022-11-04T06:08:16.213Z,17.90
2022-11-04T06:10:45.952Z,18.40
2022-11-04T06:13:16.051Z,14.10
2022-11-04T06:15:48.264Z,19.10
2022-11-04T06:18:18.673Z,20.60
2022-11-04T06:20:49.031Z,20.90
2022-11-04T06:23:20.973Z,19.70
2022-11-04T06:25:54.071Z,19.10
2022-11-04T06:28:24.097Z,18.50
2022-11-04T06:30:54.362Z,22.00
2022-11-04T06:33:24.382Z,20.80
2022-11-04T06:36:01.435Z,20.60
2022-11-04T06:38:34.266Z,18.80
2022-11-04T06:41:08.852Z,22.40
2022-11-04T06:43:40.947Z,19.90
2022-11-04T06:46:27.527Z,25.10
2022-11-04T06:48:58.106Z,26.40
2022-11-04T06:51:28.593Z,26.20
2022-11-04T06:53:58.925Z,25.10
2022-11-04T06:56:28.862Z,25.70
2022-11-04T06:58:59.576Z,24.80
2022-11-04T07:01:31.925Z,21.70
2022-11-04T07:04:05.490Z,20.20
2022-11-04T07:06:39.798Z,18.70
2022-11-04T07:11:45.290Z,16.80
2022-11-04T07:14:15.435Z,17.10
2022-11-04T07:16:44.303Z,13.10
2022-11-04T07:19:15.518Z,13.10
2022-11-04T07:21:45.103Z,18.80
2022-11-04T07:24:14.689Z,17.60
2022-11-04T07:26:45.110Z,14.90
2022-11-04T07:29:15.326Z,15.50
2022-11-04T07:31:45.348Z,13.70
2022-11-04T07:34:14.222Z,14.00
2022-11-04T07:36:44.229Z,14.20
2022-11-04T07:39:14.200Z,13.80
2022-11-04T07:41:44.136Z,13.60
2022-11-04T07:44:14.374Z,12.70
2022-11-04T07:46:43.901Z,12.70
2022-11-04T07:49:13.898Z,11.80
2022-11-04T07:51:43.927Z,12.10
2022-11-04T07:54:13.838Z,11.30
2022-11-04T07:56:43.739Z,11.40
2022-11-04T07:59:14.108Z,11.80
2022-11-04T08:01:45.190Z,11.40
2022-11-04T08:04:15.214Z,9.20
2022-11-04T08:06:44.633Z,10.60
2022-11-04T08:09:15.231Z,11.10
2022-11-04T08:11:45.593Z,12.30
2022-11-04T08:14:15.283Z,10.40
2022-11-04T08:16:45.212Z,10.30
2022-11-04T08:19:14.576Z,10.90
2022-11-04T08:21:45.723Z,11.20
2022-11-04T08:24:14.621Z,12.10
2022-11-04T08:26:46.812Z,12.10
2022-11-04T08:29:16.620Z,12.40
2022-11-04T08:31:47.123Z,12.90
2022-11-04T08:34:18.827Z,13.90
2022-11-04T08:36:49.367Z,14.90
2022-11-04T08:39:20.585Z,15.60
2022-11-04T08:41:52.273Z,15.80
2022-11-04T08:44:27.613Z,15.80
2022-11-04T08:46:57.843Z,16.60
2022-11-04T08:49:27.627Z,16.10
2022-11-04T08:52:00.319Z,16.50
2022-11-04T08:54:30.619Z,16.50
2022-11-04T08:57:01.184Z,15.40
2022-11-04T08:59:30.120Z,16.10
2022-11-04T09:02:00.510Z,15.80
2022-11-04T09:04:31.246Z,17.00
2022-11-04T09:07:07.923Z,17.50
2022-11-04T09:09:39.830Z,15.60
2022-11-04T09:12:13.732Z,16.70
2022-11-04T09:14:44.344Z,16.30
2022-11-04T09:17:14.830Z,16.60
2022-11-04T09:19:44.628Z,17.50
2022-11-04T09:22:14.848Z,16.90
2022-11-04T09:24:43.794Z,18.00
2022-11-04T09:27:14.270Z,17.60
2022-11-04T09:29:44.974Z,19.10
2022-11-04T09:32:16.453Z,18.80
2022-11-04T09:34:46.672Z,18.00
2022-11-04T09:37:16.712Z,18.40
2022-11-04T09:39:52.742Z,18.70
2022-11-04T09:42:47.852Z,19.10
2022-11-04T09:45:30.151Z,18.50
2022-11-04T09:48:07.891Z,17.60
2022-11-04T09:51:05.223Z,19.20
2022-11-04T09:53:57.106Z,18.70
2022-11-04T09:56:36.457Z,20.70
2022-11-04T09:59:07.598Z,20.70
2022-11-04T10:02:04.347Z,19.90
2022-11-04T10:05:02.947Z,19.50
2022-11-04T10:07:45.503Z,19.80
2022-11-04T10:10:31.278Z,20.20
2022-11-04T10:13:11.142Z,21.50
2022-11-04T10:15:43.729Z,21.00
2022-11-04T10:18:36.358Z,22.00
2022-11-04T10:21:26.115Z,21.00
2022-11-04T10:24:18.319Z,21.40
2022-11-04T10:27:16.755Z,21.80
2022-11-04T10:29:58.634Z,22.00
2022-11-04T10:32:47.815Z,21.90
2022-11-04T10:35:32.373Z,22.70
2022-11-04T10:38:23.553Z,22.50
2022-11-04T10:40:55.837Z,23.80
2022-11-04T10:43:28.145Z,24.40
2022-11-04T10:46:25.429Z,25.70
2022-11-04T10:49:27.148Z,25.70
2022-11-04T10:51:59.551Z,25.40
2022-11-04T10:54:34.145Z,26.90
2022-11-04T10:57:04.313Z,27.10
2022-11-04T11:00:01.825Z,27.10
2022-11-04T11:02:37.905Z,25.30
2022-11-04T11:05:19.793Z,25.50
2022-11-04T11:07:56.075Z,26.80
2022-11-04T11:10:31.921Z,26.30
2022-11-04T11:13:08.563Z,26.20
2022-11-04T11:15:41.705Z,27.10
2022-11-04T11:18:21.517Z,25.50
2022-11-04T11:21:10.371Z,26.40
2022-11-04T11:23:44.215Z,23.50
2022-11-04T11:26:21.201Z,23.60
2022-11-04T11:28:59.072Z,25.60
2022-11-04T11:31:38.640Z,25.70
2022-11-04T11:34:19.506Z,25.40
2022-11-04T11:36:52.213Z,25.00
2022-11-04T11:39:29.066Z,25.90
2022-11-04T11:42:04.852Z,23.70
2022-11-04T11:44:44.923Z,25.10
2022-11-04T11:47:23.648Z,24.00
2022-11-04T11:50:18.347Z,23.50
2022-11-04T11:52:50.506Z,24.50
2022-11-04T11:55:44.370Z,22.90
2022-11-04T12:02:03.539Z,23.60
2022-11-04T12:11:14.961Z,23.80
2022-11-04T12:14:02.736Z,24.60
2022-11-04T12:16:56.580Z,23.90
2022-11-04T12:20:15.093Z,23.80
2022-11-04T12:23:25.701Z,23.40
2022-11-04T12:26:16.759Z,23.10
2022-11-04T12:29:12.195Z,24.10
2022-11-04T12:31:50.885Z,22.90
2022-11-04T12:35:00.957Z,22.60
2022-11-04T12:37:52.763Z,21.80
2022-11-04T12:40:30.443Z,22.90
2022-11-04T12:43:21.998Z,24.60
2022-11-04T12:46:20.730Z,23.60
2022-11-04T12:49:21.025Z,25.00
2022-11-04T12:52:24.062Z,25.10
2022-11-04T12:55:22.821Z,24.00
2022-11-04T12:58:27.191Z,24.70
2022-11-04T13:01:09.710Z,26.00
2022-11-04T13:03:59.683Z,26.00
2022-11-04T13:06:34.362Z,24.60
2022-11-04T13:09:14.206Z,25.00
2022-11-04T13:11:58.751Z,23.60
2022-11-04T13:14:31.671Z,24.70
2022-11-04T13:17:13.385Z,22.90
2022-11-04T13:19:53.181Z,24.20
2022-11-04T13:22:51.550Z,24.90
2022-11-04T13:25:31.777Z,24.50
2022-11-04T13:28:02.980Z,26.30
2022-11-04T13:31:05.665Z,23.60
2022-11-04T13:34:08.624Z,23.20
2022-11-04T13:36:42.910Z,23.60
2022-11-04T13:39:21.367Z,25.80
2022-11-04T13:42:10.253Z,25.40
2022-11-04T13:44:54.246Z,25.60
2022-11-04T13:47:38.021Z,28.10
2022-11-04T13:50:38.216Z,25.80
2022-11-04T13:53:13.003Z,25.00
2022-11-04T13:55:50.918Z,24.20
2022-11-04T14:01:22.429Z,22.30
2022-11-04T14:03:54.876Z,23.80
2022-11-04T14:06:51.636Z,24.90
2022-11-04T14:09:34.409Z,23.90
2022-11-04T14:12:14.135Z,23.50
2022-11-04T14:14:54.382Z,24.60
2022-11-04T14:17:36.375Z,24.70
2022-11-04T14:20:30.332Z,25.00
2022-11-04T14:23:04.071Z,25.60
2022-11-04T14:26:02.054Z,22.00
2022-11-04T14:28:33.666Z,22.80
2022-11-04T14:31:16.863Z,22.60
2022-11-04T14:33:55.407Z,22.30
2022-11-04T14:36:38.151Z,23.00
2022-11-04T14:39:29.162Z,24.30
2022-11-04T14:42:02.478Z,23.70
2022-11-04T14:44:38.460Z,22.80
2022-11-04T14:47:20.943Z,22.30
2022-11-04T14:50:08.040Z,22.70
2022-11-04T14:52:48.534Z,22.80
2022-11-04T14:55:30.294Z,24.60
2022-11-04T14:58:28.911Z,21.00
2022-11-04T15:01:03.428Z,22.40
2022-11-04T15:06:53.268Z,20.90
2022-11-04T15:09:30.423Z,20.20
2022-11-04T15:15:02.068Z,20.10
2022-11-04T15:17:34.350Z,21.20
2022-11-04T15:20:05.527Z,21.60
2022-11-04T15:22:36.806Z,19.10
2022-11-04T15:25:12.322Z,20.90
2022-11-04T15:27:42.528Z,20.80
2022-11-04T15:30:26.049Z,20.70
2022-11-04T15:33:04.414Z,22.60
2022-11-04T15:38:04.928Z,24.20
2022-11-04T15:40:35.840Z,23.30
2022-11-04T15:43:06.890Z,23.40
2022-11-04T15:45:51.845Z,23.80
2022-11-04T15:48:34.318Z,22.80
2022-11-04T15:51:24.643Z,22.80
2022-11-04T15:54:02.138Z,24.10
2022-11-04T15:56:48.730Z,25.10
2022-11-04T15:59:22.939Z,22.50
2022-11-04T16:01:54.131Z,23.10
2022-11-04T16:04:29.918Z,24.00
2022-11-04T16:07:21.410Z,25.10
2022-11-04T16:09:54.276Z,29.10
2022-11-04T16:12:31.660Z,30.10
2022-11-04T16:15:02.485Z,37.40
2022-11-04T16:17:33.659Z,65.10
2022-11-04T16:20:08.805Z,43.10
2022-11-04T16:22:41.047Z,30.50
2022-11-04T16:25:22.795Z,32.80
2022-11-04T16:27:51.903Z,34.50
2022-11-04T16:30:25.102Z,27.90
2022-11-04T16:33:10.774Z,31.20
2022-11-04T16:35:43.502Z,41.90
2022-11-04T16:38:15.464Z,39.30
2022-11-04T16:40:48.419Z,33.50
2022-11-04T16:43:23.328Z,52.50
2022-11-04T16:45:56.306Z,44.80
2022-11-04T16:48:28.149Z,53.30
2022-11-04T16:50:58.748Z,59.10
2022-11-04T16:53:29.053Z,46.40
2022-11-04T16:56:00.436Z,38.20
2022-11-04T16:58:30.277Z,30.90
2022-11-04T17:01:05.343Z,45.30
2022-11-04T17:03:37.695Z,51.80
2022-11-04T17:06:20.357Z,72.30
2022-11-04T17:08:50.350Z,61.10
2022-11-04T17:11:20.357Z,59.80
2022-11-04T17:13:50.396Z,32.30
2022-11-04T17:16:20.619Z,55.20
2022-11-04T17:18:50.614Z,60.50
2022-11-04T17:21:21.696Z,43.80
2022-11-04T17:23:50.579Z,35.20
2022-11-04T17:26:20.701Z,33.90
2022-11-04T17:28:49.430Z,69.00
2022-11-04T17:31:20.382Z,45.70
2022-11-04T17:33:49.580Z,60.40
2022-11-04T17:36:20.069Z,78.10
2022-11-04T17:38:52.829Z,75.40
2022-11-04T17:41:42.714Z,79.20
2022-11-04T17:44:14.258Z,87.70
2022-11-04T17:46:48.128Z,67.40
2022-11-04T17:49:26.896Z,32.10
2022-11-04T17:52:01.456Z,32.30
2022-11-04T17:54:33.461Z,101.30
2022-11-04T17:57:04.220Z,67.60
2022-11-04T17:59:36.935Z,63.30
2022-11-04T18:02:06.495Z,62.80
2022-11-04T18:04:36.378Z,62.00
2022-11-04T18:07:06.460Z,59.60
2022-11-04T18:09:36.791Z,66.10
2022-11-04T18:12:26.980Z,68.10
2022-11-04T18:14:57.349Z,78.20
2022-11-04T18:17:28.043Z,81.50
2022-11-04T18:19:58.187Z,85.00
2022-11-04T18:22:28.665Z,77.40
2022-11-04T18:24:58.691Z,72.60
2022-11-04T18:27:28.615Z,66.50
2022-11-04T18:29:58.916Z,64.60
2022-11-04T18:32:28.958Z,90.80
2022-11-04T18:34:59.130Z,83.30
2022-11-04T18:37:29.514Z,97.70
2022-11-04T18:39:58.308Z,89.80
2022-11-04T18:42:28.278Z,93.20
2022-11-04T18:44:58.436Z,98.90
2022-11-04T18:47:28.723Z,91.70
2022-11-04T18:49:57.644Z,103.90
2022-11-04T18:52:27.153Z,104.00
2022-11-04T18:54:57.478Z,107.30
2022-11-04T18:57:27.640Z,94.70
2022-11-04T18:59:57.675Z,78.00
2022-11-04T19:02:28.408Z,66.50
2022-11-04T19:04:58.574Z,70.10
2022-11-04T19:07:28.587Z,65.30
2022-11-04T19:09:59.025Z,69.50
2022-11-04T19:12:47.637Z,67.20
2022-11-04T19:15:17.908Z,64.10
2022-11-04T19:17:48.350Z,66.30
2022-11-04T19:20:18.653Z,68.30
2022-11-04T19:22:48.573Z,64.60
2022-11-04T19:25:19.194Z,52.10
2022-11-04T19:28:11.464Z,51.20
2022-11-04T19:30:42.269Z,50.90
2022-11-04T19:33:12.560Z,52.30
2022-11-04T19:35:45.765Z,65.60
2022-11-04T19:38:17.781Z,62.40
2022-11-04T19:40:51.971Z,74.70
2022-11-04T19:43:23.845Z,86.60
2022-11-04T19:45:54.174Z,88.00
2022-11-04T19:48:24.011Z,96.20
2022-11-04T19:50:54.260Z,95.00
2022-11-04T19:53:24.507Z,80.70
2022-11-04T19:55:56.016Z,92.90
2022-11-04T19:58:26.180Z,91.30
2022-11-04T20:00:56.146Z,79.10
2022-11-04T20:03:26.419Z,78.10
2022-11-04T20:05:57.286Z,74.60
2022-11-04T20:08:27.208Z,81.70
2022-11-04T20:11:02.065Z,67.20
2022-11-04T20:13:52.315Z,58.10
2022-11-04T20:16:30.725Z,67.50
2022-11-04T20:19:04.977Z,62.80
2022-11-04T20:21:37.104Z,66.60
2022-11-04T20:24:08.901Z,60.30
2022-11-04T20:26:41.438Z,62.80
2022-11-04T20:29:12.438Z,61.70
2022-11-04T20:31:42.677Z,55.30
2022-11-04T20:34:14.726Z,58.10
2022-11-04T20:36:44.971Z,57.60
2022-11-04T20:39:18.108Z,54.30
2022-11-04T20:41:48.098Z,52.90
2022-11-04T20:44:18.524Z,48.60
2022-11-04T20:46:48.988Z,48.20
2022-11-04T20:49:19.536Z,57.80
2022-11-04T20:51:54.772Z,60.20
2022-11-04T20:54:25.624Z,57.30
2022-11-04T20:56:55.853Z,59.00
2022-11-04T20:59:25.740Z,56.80
2022-11-04T21:01:56.340Z,51.20
2022-11-04T21:04:30.605Z,53.30
2022-11-04T21:07:03.840Z,53.20
2022-11-04T21:09:33.498Z,53.30
2022-11-04T21:12:03.044Z,51.50
2022-11-04T21:14:35.620Z,46.80
2022-11-04T21:17:06.467Z,46.50
2022-11-04T21:19:36.865Z,43.90
2022-11-04T21:22:07.200Z,48.50
2022-11-04T21:24:39.330Z,48.40
2022-11-04T21:27:09.573Z,48.20
2022-11-04T21:29:39.823Z,45.10
2022-11-04T21:32:10.077Z,46.20
2022-11-04T21:34:40.403Z,45.50
2022-11-04T21:37:10.628Z,45.50
2022-11-04T21:39:42.994Z,49.80
2022-11-04T21:42:12.804Z,43.10
2022-11-04T21:44:43.048Z,43.00
2022-11-04T21:47:13.368Z,41.30
2022-11-04T21:49:43.693Z,41.40
2022-11-04T21:52:14.052Z,43.40
2022-11-04T21:54:44.328Z,42.50
2022-11-04T21:57:14.232Z,47.30
2022-11-04T21:59:44.628Z,48.70
2022-11-04T22:02:15.157Z,44.20
2022-11-04T22:04:46.406Z,41.10
2022-11-04T22:07:37.885Z,40.50
2022-11-04T22:10:07.375Z,44.30
2022-11-04T22:12:38.142Z,44.60
2022-11-04T22:15:08.810Z,43.30
2022-11-04T22:17:39.303Z,43.40
2022-11-04T22:20:09.008Z,43.20
2022-11-04T22:22:40.694Z,42.40
2022-11-04T22:25:11.206Z,41.70
2022-11-04T22:27:39.986Z,41.40
2022-11-04T22:30:10.492Z,38.90
2022-11-04T22:32:40.587Z,40.50
2022-11-04T22:35:10.772Z,39.90
2022-11-04T22:37:40.683Z,37.20
2022-11-04T22:40:11.098Z,37.80
2022-11-04T22:42:41.148Z,38.10
2022-11-04T22:45:16.598Z,36.80
2022-11-04T22:47:48.077Z,34.70
2022-11-04T22:50:18.158Z,37.30
2022-11-04T22:52:48.630Z,38.10
2022-11-04T22:55:18.375Z,35.10
2022-11-04T22:57:47.857Z,35.10
2022-11-04T23:00:18.000Z,33.00
2022-11-04T23:02:48.372Z,36.30
2022-11-04T23:05:18.673Z,37.90
2022-11-04T23:07:49.234Z,34.70
2022-11-04T23:10:39.219Z,38.10
2022-11-04T23:13:30.115Z,39.60
2022-11-04T23:16:20.605Z,37.90
2022-11-04T23:18:52.974Z,32.80
2022-11-04T23:21:42.776Z,33.60
2022-11-04T23:24:32.201Z,34.80
2022-11-04T23:27:02.172Z,31.90
2022-11-04T23:29:51.797Z,32.80
2022-11-04T23:32:27.094Z,31.00
2022-11-04T23:35:17.128Z,29.90
2022-11-04T23:37:48.217Z,32.50
2022-11-04T23:40:18.289Z,33.60
2022-11-04T23:42:47.971Z,32.80
2022-11-04T23:45:40.256Z,35.30
2022-11-04T23:48:35.437Z,33.20
2022-11-04T23:51:25.006Z,32.30
2022-11-04T23:54:14.932Z,31.50
2022-11-04T23:57:06.300Z,31.80
2022-11-04T23:59:55.189Z,32.50
